Time;durP1;ratioP1;P1;durP2;ratioP2;P2;SDS_P1;SDS_P2;PMS_P1;PMS_P2;Temp;Humidity;BMP_temperature;BMP_pressure;BME280_temperature;BME280_humidity;BME280_pressure;Samples;Min_cycle;Max_cycle;Signal;HPM_P1;HPM_P2
2023/01/11 00:01:50;;;;;;;7.00;2.23;;;;;;;-142.25;100.00;58004.16;5036571;28;20049;-70
2023/01/11 00:04:15;;;;;;;3.20;1.60;;;;;;;-142.25;100.00;58004.16;5038296;28;20065;-70
2023/01/11 00:06:41;;;;;;;3.50;1.80;;;;;;;-142.25;100.00;58004.16;5033912;28;20447;-70
2023/01/11 00:09:07;;;;;;;5.60;1.30;;;;;;;-142.25;100.00;58004.16;5032048;28;20140;-70
2023/01/11 00:11:32;;;;;;;5.40;1.33;;;;;;;-142.25;100.00;58004.16;5033743;28;20120;-72
2023/01/11 00:13:58;;;;;;;4.37;1.30;;;;;;;-142.25;100.00;58004.16;5035244;28;20042;-69
2023/01/11 00:16:23;;;;;;;3.93;1.77;;;;;;;-142.25;100.00;58004.16;5033839;28;20441;-68
2023/01/11 00:18:49;;;;;;;6.80;2.60;;;;;;;-142.25;100.00;58004.16;5033389;28;20053;-69
2023/01/11 00:21:15;;;;;;;2.73;1.77;;;;;;;-142.25;100.00;58004.16;5037259;28;20047;-70
2023/01/11 00:23:41;;;;;;;5.57;1.60;;;;;;;-142.25;100.00;58004.16;5033212;28;20045;-71
2023/01/11 00:26:10;;;;;;;2.73;1.33;;;;;;;-142.25;100.00;58004.16;5035872;28;20798;-69
2023/01/11 00:28:36;;;;;;;6.17;2.80;;;;;;;-142.25;100.00;58004.16;5036552;28;20052;-71
2023/01/11 00:31:02;;;;;;;3.30;1.83;;;;;;;-142.25;100.00;58004.16;5050521;28;20049;-70
2023/01/11 00:33:29;;;;;;;2.23;1.63;;;;;;;-142.25;100.00;58004.16;5034621;28;20045;-69
2023/01/11 00:35:54;;;;;;;3.00;2.17;;;;;;;-142.25;100.00;58004.16;5033563;28;20033;-68
2023/01/11 00:49:20;;;;;;;7.07;2.80;;;;;;;-142.25;100.00;58004.16;5035620;28;20041;-70
2023/01/11 00:51:46;;;;;;;4.30;2.27;;;;;;;-142.25;100.00;58004.16;5033041;28;20429;-70
2023/01/11 00:54:12;;;;;;;6.60;2.73;;;;;;;-142.25;100.00;58004.16;5033370;28;20917;-70
2023/01/11 00:56:37;;;;;;;3.30;1.67;;;;;;;-142.25;100.00;58004.16;5035937;28;20059;-69
2023/01/11 00:59:03;;;;;;;2.07;1.20;;;;;;;-142.25;100.00;58004.16;5036548;28;20044;-70
2023/01/11 01:01:30;;;;;;;1.97;1.50;;;;;;;-142.25;100.00;58004.16;5034617;28;20044;-70
2023/01/11 01:03:56;;;;;;;3.67;1.60;;;;;;;-142.25;100.00;58004.16;5034118;28;20041;-70
2023/01/11 01:06:22;;;;;;;5.00;1.77;;;;;;;-142.25;100.00;58004.16;5033560;28;20060;-69
2023/01/11 01:08:48;;;;;;;3.50;1.70;;;;;;;-142.25;100.00;58004.16;5033837;28;20376;-69
2023/01/11 01:11:14;;;;;;;2.20;1.17;;;;;;;-142.25;100.00;58004.16;5037651;28;20459;-70
2023/01/11 01:16:24;;;;;;;2.60;1.00;;;;;;;-142.25;100.00;58004.16;5035662;28;20221;-69
2023/01/11 01:18:51;;;;;;;3.83;1.23;;;;;;;-142.25;100.00;58004.16;5036174;28;20060;-70
2023/01/11 01:21:16;;;;;;;7.77;1.30;;;;;;;-142.25;100.00;58004.16;5036750;28;20490;-70
2023/01/11 01:23:42;;;;;;;2.63;1.40;;;;;;;-142.25;100.00;58004.16;5028282;28;20514;-71
2023/01/11 01:26:07;;;;;;;4.27;1.33;;;;;;;-142.25;100.00;58004.16;5033995;28;20473;-70
2023/01/11 01:28:33;;;;;;;3.93;1.93;;;;;;;-142.25;100.00;58004.16;5034753;28;20468;-71
2023/01/11 01:30:58;;;;;;;8.07;1.00;;;;;;;-142.25;100.00;58004.16;5033155;28;20739;-68
2023/01/11 01:33:24;;;;;;;4.93;1.23;;;;;;;-142.25;100.00;58004.16;5038127;28;20053;-70
2023/01/11 01:35:50;;;;;;;4.97;1.23;;;;;;;-142.25;100.00;58004.16;5036885;28;20487;-68
2023/01/11 01:38:16;;;;;;;1.50;0.90;;;;;;;-142.25;100.00;58004.16;5034944;28;20776;-71
2023/01/11 01:40:44;;;;;;;3.57;1.70;;;;;;;-142.25;100.00;58004.16;5036055;28;20049;-70
2023/01/11 01:43:15;;;;;;;2.70;1.33;;;;;;;-142.25;100.00;58004.16;5035692;28;20029;-69
2023/01/11 01:45:42;;;;;;;2.27;1.80;;;;;;;-142.25;100.00;58004.16;5030990;28;20385;-70
2023/01/11 01:48:18;;;;;;;3.27;1.30;;;;;;;-142.25;100.00;58004.16;5032511;28;20365;-70
2023/01/11 01:50:49;;;;;;;6.00;1.33;;;;;;;-142.25;100.00;58004.16;5029710;28;20582;-68
2023/01/11 01:53:22;;;;;;;2.40;1.17;;;;;;;-142.25;100.00;58004.16;5035269;28;20075;-69
2023/01/11 01:55:53;;;;;;;1.53;1.23;;;;;;;-142.25;100.00;58004.16;5035431;28;20472;-69
2023/01/11 01:58:25;;;;;;;2.93;1.13;;;;;;;-142.25;100.00;58004.16;5029837;28;20454;-69
2023/01/11 02:00:52;;;;;;;4.37;1.37;;;;;;;-142.25;100.00;58004.16;5034375;28;20059;-69
2023/01/11 02:03:22;;;;;;;1.67;1.00;;;;;;;-142.25;100.00;58004.16;5035444;28;20111;-69
2023/01/11 02:05:49;;;;;;;2.93;0.90;;;;;;;-142.25;100.00;58004.16;5049043;28;20223;-69
2023/01/11 02:08:31;;;;;;;4.53;1.47;;;;;;;-142.25;100.00;58004.16;5038466;28;20040;-68
2023/01/11 02:10:58;;;;;;;3.97;1.40;;;;;;;-142.25;100.00;58004.16;5038117;28;20062;-70
2023/01/11 02:13:24;;;;;;;2.23;1.10;;;;;;;-142.25;100.00;58004.16;5037397;28;20048;-69
2023/01/11 02:16:06;;;;;;;2.00;1.20;;;;;;;-142.25;100.00;58004.16;5036012;28;20094;-68
2023/01/11 02:18:34;;;;;;;3.27;1.90;;;;;;;-142.25;100.00;58004.16;5033646;28;20080;-69
2023/01/11 02:21:07;;;;;;;4.13;1.10;;;;;;;-142.25;100.00;58004.16;5033956;28;20036;-70
2023/01/11 02:23:51;;;;;;;7.13;2.00;;;;;;;-142.25;100.00;58004.16;5034103;28;20037;-70
2023/01/11 02:26:54;;;;;;;3.63;1.37;;;;;;;-142.25;100.00;58004.16;5031823;28;20064;-69
2023/01/11 02:29:26;;;;;;;3.20;1.40;;;;;;;-142.25;100.00;58004.16;5034366;28;20143;-69
2023/01/11 02:31:58;;;;;;;0.80;0.80;;;;;;;-142.25;100.00;58004.16;5034550;28;20056;-69
2023/01/11 02:34:49;;;;;;;3.00;1.10;;;;;;;-142.25;100.00;58004.16;5032786;28;20052;-69
2023/01/11 02:37:23;;;;;;;6.67;1.33;;;;;;;-142.25;100.00;58004.16;5035145;28;20052;-70
2023/01/11 02:39:58;;;;;;;4.38;1.20;;;;;;;-142.25;100.00;58004.16;5041689;28;20060;-69
2023/01/11 02:45:22;;;;;;;1.70;1.20;;;;;;;-142.25;100.00;58004.16;5031957;28;20504;-70
2023/01/11 02:48:00;;;;;;;2.00;1.17;;;;;;;-142.25;100.00;58004.16;5030179;28;20079;-69
2023/01/11 02:50:47;;;;;;;2.00;1.30;;;;;;;-142.25;100.00;58004.16;5034162;28;20069;-70
2023/01/11 02:53:52;;;;;;;4.57;1.67;;;;;;;-142.25;100.00;58004.16;5034525;28;20076;-70
2023/01/11 02:56:25;;;;;;;4.00;1.67;;;;;;;-142.25;100.00;58004.16;5032970;28;20044;-71
2023/01/11 02:58:55;;;;;;;2.80;1.50;;;;;;;-142.25;100.00;58004.16;5033107;28;20068;-70
2023/01/11 03:01:22;;;;;;;4.57;1.73;;;;;;;-142.25;100.00;58004.16;5032501;28;20059;-70
2023/01/11 03:03:49;;;;;;;4.97;2.43;;;;;;;-142.25;100.00;58004.16;5034485;28;20157;-69
2023/01/11 03:06:25;;;;;;;4.60;2.20;;;;;;;-142.25;100.00;58004.16;5032892;28;20043;-70
2023/01/11 03:09:05;;;;;;;5.80;2.23;;;;;;;-142.25;100.00;58004.16;5032683;28;20547;-69
2023/01/11 03:14:42;;;;;;;18.07;8.70;;;;;;;-142.25;100.00;58004.16;5030200;28;20537;-68
2023/01/11 03:17:25;;;;;;;9.45;4.55;;;;;;;-142.25;100.00;58004.16;5030925;28;20590;-69
2023/01/11 03:19:54;;;;;;;7.93;4.13;;;;;;;-142.25;100.00;58004.16;5032599;28;20053;-70
2023/01/11 03:22:41;;;;;;;9.30;5.00;;;;;;;-142.25;100.00;58004.16;5034357;28;20044;-70
2023/01/11 03:25:23;;;;;;;34.33;14.20;;;;;;;-142.25;100.00;58004.16;5032589;28;20072;-70
2023/01/11 03:28:15;;;;;;;24.47;12.57;;;;;;;-142.25;100.00;58004.16;5032921;28;20417;-69
2023/01/11 03:31:00;;;;;;;26.03;11.80;;;;;;;-142.25;100.00;58004.16;5035643;28;20136;-71
2023/01/11 03:33:53;;;;;;;11.60;5.30;;;;;;;-142.25;100.00;58004.16;5036838;28;20037;-70
2023/01/11 03:36:25;;;;;;;12.33;6.57;;;;;;;-142.25;100.00;58004.16;5035498;28;20123;-70
2023/01/11 03:39:36;;;;;;;14.87;7.33;;;;;;;-142.25;100.00;58004.16;5038116;28;20541;-70
2023/01/11 03:42:06;;;;;;;4.73;2.57;;;;;;;-142.25;100.00;58004.16;5035621;28;20053;-70
2023/01/11 03:44:38;;;;;;;7.33;2.17;;;;;;;-142.25;100.00;58004.16;5037443;28;20041;-70
2023/01/11 03:47:07;;;;;;;3.87;2.23;;;;;;;-142.25;100.00;58004.16;5038329;28;20033;-70
2023/01/11 03:49:35;;;;;;;5.07;2.53;;;;;;;-142.25;100.00;58004.16;5037455;28;20041;-69
2023/01/11 03:52:04;;;;;;;2.10;1.60;;;;;;;-142.25;100.00;58004.16;5036392;28;20618;-69
2023/01/11 03:54:32;;;;;;;4.07;2.37;;;;;;;-142.25;100.00;58004.16;5039012;28;20052;-68
2023/01/11 03:57:09;;;;;;;5.83;1.97;;;;;;;-142.25;100.00;58004.16;5037772;28;20063;-69
2023/01/11 03:59:36;;;;;;;6.93;1.90;;;;;;;-142.25;100.00;58004.16;5037088;28;20044;-69
2023/01/11 04:02:02;;;;;;;3.57;1.70;;;;;;;-142.25;100.00;58004.16;5037258;28;20041;-69
2023/01/11 04:04:27;;;;;;;3.17;1.93;;;;;;;-142.25;100.00;58004.16;5032335;28;20123;-68
2023/01/11 04:06:53;;;;;;;4.13;1.47;;;;;;;-142.25;100.00;58004.16;5039237;28;20041;-69
2023/01/11 04:09:19;;;;;;;8.60;2.60;;;;;;;-142.25;100.00;58004.16;5036713;28;20476;-70
2023/01/11 04:11:44;;;;;;;6.03;1.97;;;;;;;-142.25;100.00;58004.16;5036565;28;20167;-70
2023/01/11 04:14:10;;;;;;;3.73;1.83;;;;;;;-142.25;100.00;58004.16;5036875;28;20152;-71
2023/01/11 04:16:36;;;;;;;6.73;1.90;;;;;;;-142.25;100.00;58004.16;5037720;28;20072;-70
2023/01/11 04:19:01;;;;;;;7.17;2.93;;;;;;;-142.25;100.00;58004.16;5037015;28;20057;-70
2023/01/11 04:21:28;;;;;;;9.33;3.80;;;;;;;-142.25;100.00;58004.16;5033766;28;20476;-70
2023/01/11 04:23:54;;;;;;;14.97;6.87;;;;;;;-142.25;100.00;58004.16;5036375;28;20046;-70
2023/01/11 04:26:19;;;;;;;13.47;5.53;;;;;;;-142.25;100.00;58004.16;5037354;28;20086;-69
2023/01/11 04:28:45;;;;;;;17.10;6.27;;;;;;;-142.25;100.00;58004.16;5037388;28;20127;-70
2023/01/11 04:31:11;;;;;;;15.23;6.40;;;;;;;-142.25;100.00;58004.16;5037010;28;20065;-71
2023/01/11 04:33:36;;;;;;;12.13;5.97;;;;;;;-142.25;100.00;58004.16;5037350;28;20372;-70
2023/01/11 04:36:10;;;;;;;13.23;5.20;;;;;;;-142.25;100.00;58004.16;5041903;28;20052;-69
2023/01/11 04:38:36;;;;;;;6.77;3.93;;;;;;;-142.25;100.00;58004.16;5036124;28;20118;-69
2023/01/11 04:43:46;;;;;;;8.23;3.97;;;;;;;-142.25;100.00;58004.16;5035141;28;20041;-69
2023/01/11 04:46:12;;;;;;;12.70;4.43;;;;;;;-142.25;100.00;58004.16;5037612;28;20053;-70
2023/01/11 04:48:39;;;;;;;9.13;4.10;;;;;;;-142.25;100.00;58004.16;5036742;28;20053;-71
2023/01/11 04:51:06;;;;;;;7.83;3.57;;;;;;;-142.25;100.00;58004.16;5037565;28;20041;-70
2023/01/11 04:53:32;;;;;;;10.00;4.13;;;;;;;-142.25;100.00;58004.16;5036303;28;20037;-70
2023/01/11 04:56:02;;;;;;;7.00;3.73;;;;;;;-142.25;100.00;58004.16;5032753;28;20523;-71
2023/01/11 04:58:30;;;;;;;7.80;4.60;;;;;;;-142.25;100.00;58004.16;5035642;28;20044;-70
2023/01/11 05:00:56;;;;;;;5.10;2.90;;;;;;;-142.25;100.00;58004.16;5036103;28;20041;-70
2023/01/11 05:03:22;;;;;;;5.40;3.13;;;;;;;-142.25;100.00;58004.16;5038410;28;20048;-70
2023/01/11 05:05:58;;;;;;;7.13;3.17;;;;;;;-142.25;100.00;58004.16;5035333;28;20490;-70
2023/01/11 05:08:25;;;;;;;7.00;2.87;;;;;;;-142.25;100.00;58004.16;5037772;28;20049;-71
2023/01/11 05:10:56;;;;;;;4.90;3.27;;;;;;;-142.25;100.00;58004.16;5038879;28;20051;-69
2023/01/11 05:13:40;;;;;;;4.67;2.57;;;;;;;-142.25;100.00;58004.16;5039212;28;20581;-71
2023/01/11 05:16:11;;;;;;;8.03;2.83;;;;;;;-142.25;100.00;58004.16;5036752;28;20076;-68
2023/01/11 05:19:03;;;;;;;5.80;3.27;;;;;;;-142.25;100.00;58004.16;5034011;28;20472;-72
2023/01/11 05:21:34;;;;;;;8.47;4.27;;;;;;;-142.25;100.00;58004.16;5031859;28;20056;-69
2023/01/11 05:24:02;;;;;;;7.87;3.37;;;;;;;-142.25;100.00;58004.16;5036907;28;20033;-68
2023/01/11 05:26:30;;;;;;;5.10;2.63;;;;;;;-142.25;100.00;58004.16;5037247;28;20148;-67
2023/01/11 05:28:58;;;;;;;9.87;3.43;;;;;;;-142.25;100.00;58004.16;5038542;28;20037;-68
2023/01/11 05:31:24;;;;;;;6.37;4.37;;;;;;;-142.25;100.00;58004.16;5042732;28;20044;-68
2023/01/11 05:33:50;;;;;;;5.03;4.00;;;;;;;-142.25;100.00;58004.16;5037812;28;20072;-71
2023/01/11 05:36:21;;;;;;;7.97;3.67;;;;;;;-142.25;100.00;58004.16;5036352;28;20471;-72
2023/01/11 05:38:48;;;;;;;7.10;3.63;;;;;;;-142.25;100.00;58004.16;5036148;28;20097;-70
2023/01/11 05:41:15;;;;;;;7.37;4.43;;;;;;;-142.25;100.00;58004.16;5036655;28;20045;-68
2023/01/11 05:46:30;;;;;;;7.40;3.73;;;;;;;-142.25;100.00;58004.16;5020294;28;20045;-68
2023/01/11 05:48:57;;;;;;;6.87;3.80;;;;;;;-142.25;100.00;58004.16;5036528;28;20037;-69
2023/01/11 05:51:24;;;;;;;8.47;4.10;;;;;;;-142.25;100.00;58004.16;5036499;28;20052;-70
2023/01/11 05:53:50;;;;;;;5.33;4.17;;;;;;;-142.25;100.00;58004.16;5035891;28;20042;-70
2023/01/11 05:56:15;;;;;;;9.77;3.50;;;;;;;-142.25;100.00;58004.16;5035816;28;20361;-70
2023/01/11 05:58:41;;;;;;;6.17;3.23;;;;;;;-142.25;100.00;58004.16;5036686;28;20604;-71
2023/01/11 06:01:07;;;;;;;10.37;4.03;;;;;;;-142.25;100.00;58004.16;5036396;28;20055;-68
2023/01/11 06:03:32;;;;;;;9.43;3.70;;;;;;;-142.25;100.00;58004.16;5037212;28;20190;-65
2023/01/11 06:05:58;;;;;;;10.43;5.27;;;;;;;-142.25;100.00;58004.16;5035110;28;20037;-70
2023/01/11 06:08:24;;;;;;;8.70;4.90;;;;;;;-142.25;100.00;58004.16;5035479;28;20033;-72
2023/01/11 06:10:51;;;;;;;13.23;6.20;;;;;;;-142.25;100.00;58004.16;5034580;28;20040;-62
2023/01/11 06:13:26;;;;;;;14.83;6.60;;;;;;;-142.25;100.00;58004.16;5030372;28;20049;-70
2023/01/11 06:15:54;;;;;;;15.63;6.65;;;;;;;-142.25;100.00;58004.16;5034087;28;20043;-62
2023/01/11 06:18:21;;;;;;;17.07;7.77;;;;;;;-142.25;100.00;58004.16;5035086;28;20542;-62
2023/01/11 06:20:50;;;;;;;11.50;7.07;;;;;;;-142.25;100.00;58004.16;5030874;28;20335;-64
2023/01/11 06:23:15;;;;;;;15.77;6.37;;;;;;;-142.25;100.00;58004.16;5041890;28;20843;-63
2023/01/11 06:25:41;;;;;;;15.50;6.43;;;;;;;-142.25;100.00;58004.16;5034349;28;20053;-63
2023/01/11 06:28:07;;;;;;;24.67;10.73;;;;;;;-142.25;100.00;58004.16;5035001;28;20052;-63
2023/01/11 06:30:33;;;;;;;34.70;14.73;;;;;;;-142.25;100.00;58004.16;5031889;28;20076;-64
2023/01/11 06:33:05;;;;;;;32.07;14.20;;;;;;;-142.25;100.00;58004.16;5029905;28;20045;-64
2023/01/11 06:35:42;;;;;;;35.20;15.37;;;;;;;-142.25;100.00;58004.16;5028686;28;20067;-64
2023/01/11 06:38:10;;;;;;;30.23;12.77;;;;;;;-142.25;100.00;58004.16;5032479;28;20040;-63
2023/01/11 06:40:38;;;;;;;27.37;11.30;;;;;;;-142.25;100.00;58004.16;5032371;28;20044;-63
2023/01/11 06:43:04;;;;;;;26.00;10.27;;;;;;;-142.25;100.00;58004.16;5029766;28;20106;-63
2023/01/11 06:45:30;;;;;;;17.47;8.17;;;;;;;-142.25;100.00;58004.16;5033125;28;20102;-62
2023/01/11 06:47:56;;;;;;;12.03;7.23;;;;;;;-142.25;100.00;58004.16;5033262;28;20512;-63
2023/01/11 06:50:22;;;;;;;11.40;7.17;;;;;;;-142.25;100.00;58004.16;5033181;28;20037;-64
2023/01/11 06:52:59;;;;;;;16.43;8.27;;;;;;;-142.25;100.00;58004.16;5033347;28;20122;-64
2023/01/11 06:55:26;;;;;;;8.57;5.27;;;;;;;-142.25;100.00;58004.16;5026788;28;20039;-64
2023/01/11 06:57:53;;;;;;;13.73;4.87;;;;;;;-142.25;100.00;58004.16;5032643;28;20038;-63
2023/01/11 07:00:19;;;;;;;8.83;5.13;;;;;;;-142.25;100.00;58004.16;5035485;28;20622;-65
2023/01/11 07:02:46;;;;;;;17.00;6.27;;;;;;;-142.25;100.00;58004.16;5032781;28;20099;-64
2023/01/11 07:05:12;;;;;;;12.40;5.17;;;;;;;-142.25;100.00;58004.16;5033888;28;20403;-65
2023/01/11 07:07:39;;;;;;;9.33;4.63;;;;;;;-142.25;100.00;58004.16;5034864;28;20143;-67
2023/01/11 07:10:13;;;;;;;11.87;4.03;;;;;;;-142.25;100.00;58004.16;5034422;28;20125;-66
2023/01/11 07:12:39;;;;;;;10.63;4.57;;;;;;;-142.25;100.00;58004.16;5031650;28;20408;-67
2023/01/11 07:15:07;;;;;;;10.40;5.27;;;;;;;-142.25;100.00;58004.16;5032252;28;20045;-66
2023/01/11 07:17:34;;;;;;;13.40;7.43;;;;;;;-142.25;100.00;58004.16;5032583;28;20115;-68
2023/01/11 07:19:59;;;;;;;17.17;9.10;;;;;;;-142.25;100.00;58004.16;5035012;28;20096;-69
2023/01/11 07:22:26;;;;;;;18.00;9.10;;;;;;;-142.25;100.00;58004.16;5032419;28;20522;-71
2023/01/11 07:24:51;;;;;;;12.70;5.83;;;;;;;-142.25;100.00;58004.16;5034792;28;20052;-66
2023/01/11 07:27:19;;;;;;;8.83;5.57;;;;;;;-142.25;100.00;58004.16;5033574;28;20772;-67
2023/01/11 07:29:45;;;;;;;13.67;7.27;;;;;;;-142.25;100.00;58004.16;5034489;28;20080;-68
2023/01/11 07:32:10;;;;;;;22.57;7.60;;;;;;;-142.25;100.00;58004.16;5034723;28;20258;-68
2023/01/11 07:34:36;;;;;;;18.27;8.87;;;;;;;-142.25;100.00;58004.16;5033741;28;20102;-66
2023/01/11 07:37:02;;;;;;;16.43;8.10;;;;;;;-142.25;100.00;58004.16;5032848;28;20056;-66
2023/01/11 07:39:29;;;;;;;24.63;11.40;;;;;;;-142.25;100.00;58004.16;5033927;28;20515;-64
2023/01/11 07:44:39;;;;;;;16.30;8.70;;;;;;;-142.25;100.00;58004.16;5027353;28;20543;-66
2023/01/11 07:47:04;;;;;;;16.10;8.00;;;;;;;-142.25;100.00;58004.16;5030695;28;20087;-65
2023/01/11 07:49:31;;;;;;;22.90;9.93;;;;;;;-142.25;100.00;58004.16;5033658;28;20515;-66
2023/01/11 07:51:56;;;;;;;18.30;8.63;;;;;;;-142.25;100.00;58004.16;5032900;28;20038;-65
2023/01/11 07:54:23;;;;;;;14.63;6.77;;;;;;;-142.25;100.00;58004.16;5032234;28;20499;-64
2023/01/11 07:56:49;;;;;;;10.43;6.67;;;;;;;-142.25;100.00;58004.16;5037151;28;20067;-66
2023/01/11 07:59:15;;;;;;;10.40;6.23;;;;;;;-142.25;100.00;58004.16;5030783;28;20052;-70
2023/01/11 08:01:41;;;;;;;12.33;6.80;;;;;;;-142.25;100.00;58004.16;5033547;28;20496;-68
2023/01/11 08:04:10;;;;;;;10.53;5.87;;;;;;;-142.25;100.00;58004.16;5031154;28;20033;-65
2023/01/11 08:06:37;;;;;;;11.33;5.43;;;;;;;-142.25;100.00;58004.16;5030498;28;20059;-65
2023/01/11 08:09:03;;;;;;;10.03;5.67;;;;;;;-142.25;100.00;58004.16;5031057;28;20044;-61
2023/01/11 08:16:56;;;;;;;9.10;5.37;;;;;;;-142.25;100.00;58004.16;5028500;28;20073;-66
2023/01/11 08:19:22;;;;;;;4.63;3.37;;;;;;;-142.25;100.00;58004.16;5037952;28;20526;-68
2023/01/11 08:21:51;;;;;;;7.43;4.13;;;;;;;-142.25;100.00;58004.16;5034479;28;20040;-66
2023/01/11 08:24:17;;;;;;;9.33;5.00;;;;;;;-142.25;100.00;58004.16;5036079;28;20045;-69
2023/01/11 08:26:43;;;;;;;15.07;5.63;;;;;;;-142.25;100.00;58004.16;5035102;28;20030;-66
2023/01/11 08:29:09;;;;;;;15.40;5.93;;;;;;;-142.25;100.00;58004.16;5035323;28;20060;-65
2023/01/11 08:31:34;;;;;;;14.20;5.73;;;;;;;-142.25;100.00;58004.16;5034713;28;20131;-66
2023/01/11 08:34:00;;;;;;;11.70;5.23;;;;;;;-142.25;100.00;58004.16;5034346;28;20052;-70
2023/01/11 08:36:26;;;;;;;13.00;5.50;;;;;;;-142.25;100.00;58004.16;5035935;28;20402;-67
2023/01/11 08:38:56;;;;;;;11.17;4.73;;;;;;;-142.25;100.00;58004.16;5033433;28;20049;-66
2023/01/11 08:41:25;;;;;;;6.73;3.87;;;;;;;-142.25;100.00;58004.16;5030181;28;20080;-67
2023/01/11 08:43:50;;;;;;;14.00;5.63;;;;;;;-142.25;100.00;58004.16;5034952;28;20043;-64
2023/01/11 08:46:17;;;;;;;10.40;6.53;;;;;;;-142.25;100.00;58004.16;5032457;28;20491;-66
2023/01/11 08:48:43;;;;;;;8.33;4.50;;;;;;;-142.25;100.00;58004.16;5031125;28;20052;-67
2023/01/11 08:51:09;;;;;;;6.27;3.53;;;;;;;-142.25;100.00;58004.16;5032516;28;20045;-66
2023/01/11 08:53:36;;;;;;;7.40;5.10;;;;;;;-142.25;100.00;58004.16;5036428;28;20063;-66
2023/01/11 08:56:02;;;;;;;12.23;5.60;;;;;;;-142.25;100.00;58004.16;5033867;28;20825;-67
2023/01/11 08:58:28;;;;;;;13.40;5.73;;;;;;;-142.25;100.00;58004.16;5034276;28;20048;-66
2023/01/11 09:00:56;;;;;;;11.30;7.27;;;;;;;-142.25;100.00;58004.16;5035942;28;20044;-67
2023/01/11 09:03:22;;;;;;;13.13;5.97;;;;;;;-142.25;100.00;58004.16;5031464;28;20040;-64
2023/01/11 09:05:47;;;;;;;9.43;5.67;;;;;;;-142.25;100.00;58004.16;5034321;28;20639;-68
2023/01/11 09:08:14;;;;;;;8.60;4.60;;;;;;;-142.25;100.00;58004.16;5035721;28;20473;-67
2023/01/11 09:10:39;;;;;;;10.23;5.73;;;;;;;-142.25;100.00;58004.16;5031910;28;20044;-69
2023/01/11 09:13:08;;;;;;;16.50;6.83;;;;;;;-142.25;100.00;58004.16;5033529;28;20056;-68
2023/01/11 09:15:33;;;;;;;10.33;5.40;;;;;;;-142.25;100.00;58004.16;5032746;28;20049;-67
2023/01/11 09:18:01;;;;;;;7.77;4.43;;;;;;;-142.25;100.00;58004.16;5031186;28;20065;-64
2023/01/11 09:20:27;;;;;;;11.10;4.90;;;;;;;-142.25;100.00;58004.16;5033770;28;20119;-67
2023/01/11 09:22:52;;;;;;;7.03;3.67;;;;;;;-142.25;100.00;58004.16;5032542;28;20499;-66
2023/01/11 09:25:19;;;;;;;6.83;4.20;;;;;;;-142.25;100.00;58004.16;5033072;28;20485;-68
2023/01/11 09:27:46;;;;;;;6.23;2.80;;;;;;;-142.25;100.00;58004.16;5035685;28;20064;-68
2023/01/11 09:30:14;;;;;;;6.07;3.27;;;;;;;-142.25;100.00;58004.16;5031807;28;20088;-68
2023/01/11 09:32:39;;;;;;;5.83;2.33;;;;;;;-142.25;100.00;58004.16;5029844;28;20072;-67
2023/01/11 09:35:05;;;;;;;5.37;2.30;;;;;;;-142.25;100.00;58004.16;5034146;28;20132;-67
2023/01/11 09:37:31;;;;;;;2.97;1.53;;;;;;;-142.25;100.00;58004.16;5030331;28;20561;-68
2023/01/11 09:39:58;;;;;;;2.27;1.83;;;;;;;-142.25;100.00;58004.16;5030058;28;20041;-68
2023/01/11 09:42:35;;;;;;;5.50;2.50;;;;;;;-142.25;100.00;58004.16;5036059;28;20488;-68
2023/01/11 09:45:14;;;;;;;6.63;3.20;;;;;;;-142.25;100.00;58004.16;5032787;28;20775;-68
2023/01/11 09:47:49;;;;;;;4.13;2.50;;;;;;;-142.25;100.00;58004.16;5030805;28;20127;-69
2023/01/11 09:50:20;;;;;;;9.10;2.40;;;;;;;-142.25;100.00;58004.16;5028007;28;20045;-66
2023/01/11 09:52:51;;;;;;;7.17;3.77;;;;;;;-142.25;100.00;58004.16;5033015;28;20044;-65
2023/01/11 09:55:24;;;;;;;5.50;2.80;;;;;;;-142.25;100.00;58004.16;5034036;28;20041;-66
2023/01/11 09:58:32;;;;;;;4.33;2.00;;;;;;;-142.25;100.00;58004.16;5033936;28;20049;-67
2023/01/11 10:01:01;;;;;;;2.70;1.53;;;;;;;-142.25;100.00;58004.16;5019677;28;20053;-67
2023/01/11 10:03:53;;;;;;;8.27;2.23;;;;;;;-142.25;100.00;58004.16;5033787;28;20052;-67
2023/01/11 10:06:32;;;;;;;3.80;1.43;;;;;;;-142.25;100.00;58004.16;5035924;28;20110;-71
2023/01/11 10:09:06;;;;;;;2.53;1.50;;;;;;;-142.25;100.00;58004.16;5031698;28;20037;-68
2023/01/11 10:11:44;;;;;;;7.80;2.13;;;;;;;-142.25;100.00;58004.16;5028679;28;20049;-66
2023/01/11 10:14:32;;;;;;;4.80;1.73;;;;;;;-142.25;100.00;58004.16;5031425;28;20049;-66
2023/01/11 10:17:37;;;;;;;6.53;2.87;;;;;;;-142.25;100.00;58004.16;5029240;28;20045;-66
2023/01/11 10:20:34;;;;;;;8.80;3.73;;;;;;;-142.25;100.00;58004.16;5026165;28;20057;-68
2023/01/11 10:23:05;;;;;;;5.53;2.17;;;;;;;-142.25;100.00;58004.16;5030465;28;20072;-66
2023/01/11 10:25:45;;;;;;;1.30;0.97;;;;;;;-142.25;100.00;58004.16;5029027;28;20892;-66
2023/01/11 10:28:26;;;;;;;3.93;1.40;;;;;;;-142.25;100.00;58004.16;5029459;28;20041;-67
2023/01/11 10:42:43;;;;;;;4.30;1.60;;;;;;;-142.25;100.00;58004.16;5030917;28;20053;-69
2023/01/11 10:45:17;;;;;;;5.27;2.13;;;;;;;-142.25;100.00;58004.16;5025598;28;20148;-68
2023/01/11 10:48:00;;;;;;;2.60;1.87;;;;;;;-142.25;100.00;58004.16;5029606;28;20468;-68
2023/01/11 10:50:32;;;;;;;3.53;2.00;;;;;;;-142.25;100.00;58004.16;5033682;28;20111;-69
2023/01/11 10:53:33;;;;;;;3.97;2.20;;;;;;;-142.25;100.00;58004.16;5030722;28;20064;-66
2023/01/11 10:56:24;;;;;;;5.07;2.50;;;;;;;-142.25;100.00;58004.16;5020795;28;20397;-66
2023/01/11 10:59:14;;;;;;;3.27;2.07;;;;;;;-142.25;100.00;58004.16;5032771;28;20041;-67
2023/01/11 11:01:48;;;;;;;5.80;2.70;;;;;;;-142.25;100.00;58004.16;5036161;28;20743;-66
2023/01/11 11:04:40;;;;;;;3.83;2.30;;;;;;;-142.25;100.00;58004.16;5035865;28;20510;-68
2023/01/11 11:07:11;;;;;;;5.00;2.17;;;;;;;-142.25;100.00;58004.16;5033388;28;20060;-65
2023/01/11 11:09:55;;;;;;;6.30;3.07;;;;;;;-142.25;100.00;58004.16;5034080;28;20089;-66
2023/01/11 11:12:23;;;;;;;5.20;3.27;;;;;;;-142.25;100.00;58004.16;5036540;28;20056;-66
2023/01/11 11:14:59;;;;;;;9.80;3.90;;;;;;;-142.25;100.00;58004.16;5040202;28;20041;-65
2023/01/11 11:17:33;;;;;;;5.78;2.50;;;;;;;-142.25;100.00;58004.16;5035224;28;20496;-68
2023/01/11 11:19:59;;;;;;;6.55;2.05;;;;;;;-142.25;100.00;58004.16;5034170;28;20144;-71
2023/01/11 11:22:25;;;;;;;6.10;2.33;;;;;;;-142.25;100.00;58004.16;5030965;28;20070;-68
2023/01/11 11:25:06;;;;;;;2.50;1.53;;;;;;;-142.25;100.00;58004.16;5032459;28;20496;-69
2023/01/11 11:27:54;;;;;;;2.23;1.67;;;;;;;-142.25;100.00;58004.16;5034097;28;20106;-71
2023/01/11 11:30:40;;;;;;;5.07;2.92;;;;;;;-142.25;100.00;58004.16;5026421;28;20040;-70
2023/01/11 11:33:36;;;;;;;4.37;1.90;;;;;;;-142.25;100.00;58004.16;5035189;28;20638;-70
2023/01/11 11:36:07;;;;;;;4.22;1.70;;;;;;;-142.25;100.00;58004.16;5033073;28;20487;-71
2023/01/11 11:38:36;;;;;;;3.70;2.03;;;;;;;-142.25;100.00;58004.16;5034435;28;20049;-71
2023/01/11 11:41:09;;;;;;;6.95;3.40;;;;;;;-142.25;100.00;58004.16;5037902;28;20150;-72
2023/01/11 11:43:39;;;;;;;4.20;2.90;;;;;;;-142.25;100.00;58004.16;5034681;28;20037;-72
2023/01/11 11:46:14;;;;;;;4.70;2.05;;;;;;;-142.25;100.00;58004.16;5031055;28;20029;-70
2023/01/11 11:48:42;;;;;;;4.05;1.80;;;;;;;-142.25;100.00;58004.16;5033931;28;20033;-70
2023/01/11 11:51:22;;;;;;;3.03;1.95;;;;;;;-142.25;100.00;58004.16;5036183;28;20132;-70
2023/01/11 11:53:53;;;;;;;2.78;1.65;;;;;;;-142.25;100.00;58004.16;5035453;28;20040;-71
2023/01/11 11:56:27;;;;;;;3.22;1.75;;;;;;;-142.25;100.00;58004.16;5038278;28;20099;-71
2023/01/11 11:58:55;;;;;;;2.30;1.73;;;;;;;-142.25;100.00;58004.16;5039169;28;20042;-74
2023/01/11 12:01:45;;;;;;;2.15;1.42;;;;;;;-142.25;100.00;58004.16;5038772;28;20131;-72
2023/01/11 12:04:11;;;;;;;2.60;1.85;;;;;;;-142.25;100.00;58004.16;5034378;28;20048;-72
2023/01/11 12:06:37;;;;;;;2.85;1.80;;;;;;;-142.25;100.00;58004.16;5037459;28;20036;-73
2023/01/11 12:09:22;;;;;;;3.60;1.85;;;;;;;-142.25;100.00;58004.16;5035944;28;20045;-72